Time;durP1;ratioP1;P1;durP2;ratioP2;P2;SDS_P1;SDS_P2;PMS_P1;PMS_P2;Temp;Humidity;BMP_temperature;BMP_pressure;BME280_temperature;BME280_humidity;BME280_pressure;Samples;Min_cycle;Max_cycle;Signal;HPM_P1;HPM_P2
2024/02/16 00:01:00;;;;;;;9.60;4.93;;;;;12.60;98291.00;;;;4858971;29;20053;-70
2024/02/16 00:03:27;;;;;;;8.68;4.10;;;;;12.60;98283.00;;;;4843870;29;20042;-70
2024/02/16 00:05:54;;;;;;;9.60;4.85;;;;;12.50;98281.00;;;;4843792;29;20385;-70
2024/02/16 00:08:21;;;;;;;7.15;4.68;;;;;12.60;98275.00;;;;4847630;29;20134;-70
2024/02/16 00:10:48;;;;;;;8.88;5.20;;;;;12.70;98283.00;;;;4843675;29;20125;-70
2024/02/16 00:13:15;;;;;;;12.43;5.03;;;;;12.70;98273.00;;;;4843839;29;20057;-70
2024/02/16 00:15:41;;;;;;;10.07;5.53;;;;;12.80;98278.00;;;;4843487;29;20124;-70
2024/02/16 00:18:08;;;;;;;9.25;5.03;;;;;12.90;98275.00;;;;4843467;29;20064;-71
2024/02/16 00:20:34;;;;;;;8.77;5.35;;;;;12.80;98282.00;;;;4843221;29;20052;-70
2024/02/16 00:23:01;;;;;;;8.90;4.95;;;;;12.80;98267.00;;;;4843102;29;20058;-69
2024/02/16 00:25:27;;;;;;;9.43;4.63;;;;;12.90;98274.00;;;;4843267;29;20045;-70
2024/02/16 00:27:54;;;;;;;11.00;4.57;;;;;12.90;98278.00;;;;4842082;29;20110;-70
2024/02/16 00:30:22;;;;;;;7.32;4.57;;;;;12.80;98274.00;;;;4843048;29;20045;-70
2024/02/16 00:32:49;;;;;;;11.73;5.93;;;;;12.70;98274.00;;;;4841867;29;20050;-71
2024/02/16 00:35:19;;;;;;;8.32;4.55;;;;;12.70;98272.00;;;;4841936;29;20049;-69
2024/02/16 00:37:46;;;;;;;11.55;4.80;;;;;12.80;98268.00;;;;4845576;29;20105;-70
2024/02/16 00:40:12;;;;;;;6.85;4.10;;;;;12.80;98272.00;;;;4842792;29;20054;-70
2024/02/16 00:42:39;;;;;;;6.35;4.50;;;;;12.80;98269.00;;;;4842999;29;20120;-70
2024/02/16 00:45:06;;;;;;;9.73;4.95;;;;;12.80;98260.00;;;;4841896;29;20165;-70
2024/02/16 00:47:33;;;;;;;6.65;3.75;;;;;12.80;98274.00;;;;4842880;29;20125;-71
2024/02/16 00:49:59;;;;;;;7.25;3.75;;;;;12.90;98267.00;;;;4842667;29;20042;-71
2024/02/16 00:52:26;;;;;;;7.90;3.10;;;;;13.00;98269.00;;;;4842887;29;20053;-69
2024/02/16 00:54:53;;;;;;;3.78;2.33;;;;;13.10;98281.00;;;;4841381;29;20515;-71
2024/02/16 00:57:19;;;;;;;5.07;2.90;;;;;13.20;98274.00;;;;4842660;29;20503;-69
2024/02/16 00:59:46;;;;;;;4.68;2.70;;;;;13.20;98271.00;;;;4856728;29;20157;-70
2024/02/16 01:02:12;;;;;;;6.22;2.85;;;;;13.30;98273.00;;;;4840755;29;20058;-69
2024/02/16 01:04:39;;;;;;;6.03;2.63;;;;;13.40;98269.00;;;;4842623;29;20519;-69
2024/02/16 01:07:05;;;;;;;6.00;2.80;;;;;13.50;98273.00;;;;4842638;29;20046;-69
2024/02/16 01:09:32;;;;;;;5.53;2.47;;;;;13.60;98278.00;;;;4845254;29;20046;-70
2024/02/16 01:11:59;;;;;;;3.78;2.45;;;;;13.60;98267.00;;;;4842386;29;20054;-69
2024/02/16 01:14:25;;;;;;;5.32;2.72;;;;;13.70;98274.00;;;;4841392;29;20050;-70
2024/02/16 01:16:52;;;;;;;6.70;3.08;;;;;13.70;98272.00;;;;4842333;29;20435;-70
2024/02/16 01:19:18;;;;;;;5.97;2.53;;;;;13.70;98279.00;;;;4840958;29;20046;-70
2024/02/16 01:21:47;;;;;;;4.75;2.30;;;;;13.70;98271.00;;;;4842247;29;20181;-70
2024/02/16 01:24:14;;;;;;;4.45;2.58;;;;;13.70;98279.00;;;;4841091;29;20049;-70
2024/02/16 01:26:40;;;;;;;3.38;1.80;;;;;13.80;98271.00;;;;4842228;29;20053;-70
2024/02/16 01:29:07;;;;;;;5.57;1.70;;;;;13.80;98264.00;;;;4841893;29;20522;-70
2024/02/16 01:31:36;;;;;;;4.80;2.08;;;;;13.90;98273.00;;;;4842094;29;20050;-70
2024/02/16 01:34:03;;;;;;;5.15;2.03;;;;;13.90;98258.00;;;;4840851;29;20509;-70
2024/02/16 01:36:29;;;;;;;5.47;2.40;;;;;14.00;98272.00;;;;4842113;29;20050;-70
2024/02/16 01:38:56;;;;;;;4.43;1.77;;;;;14.10;98264.00;;;;4845810;29;20487;-70
2024/02/16 01:41:22;;;;;;;5.35;2.40;;;;;14.10;98266.00;;;;4841866;29;20041;-70
2024/02/16 01:43:53;;;;;;;4.70;2.25;;;;;14.10;98263.00;;;;4841973;29;20053;-70
2024/02/16 01:46:19;;;;;;;4.18;1.95;;;;;14.20;98264.00;;;;4840883;29;20050;-70
2024/02/16 01:48:46;;;;;;;5.07;2.05;;;;;14.20;98269.00;;;;4841720;29;20064;-70
2024/02/16 01:51:13;;;;;;;5.63;2.30;;;;;14.20;98266.00;;;;4841957;29;20049;-70
2024/02/16 01:53:40;;;;;;;4.68;2.40;;;;;14.30;98272.00;;;;4841676;29;20053;-70
2024/02/16 01:56:07;;;;;;;3.08;2.13;;;;;14.30;98271.00;;;;4840488;29;20054;-70
2024/02/16 01:58:34;;;;;;;4.20;2.20;;;;;14.30;98265.00;;;;4840309;29;20049;-70
2024/02/16 02:01:01;;;;;;;3.40;1.90;;;;;14.30;98275.00;;;;4841764;29;20038;-70
2024/02/16 02:03:28;;;;;;;4.30;1.92;;;;;14.30;98273.00;;;;4841673;29;20099;-70
2024/02/16 02:05:56;;;;;;;3.25;2.13;;;;;14.40;98274.00;;;;4841712;29;20088;-70
2024/02/16 02:08:26;;;;;;;8.30;2.40;;;;;14.40;98280.00;;;;4844213;29;20050;-70
2024/02/16 02:10:52;;;;;;;2.72;2.10;;;;;14.40;98267.00;;;;4841289;29;20053;-70
2024/02/16 02:13:21;;;;;;;3.20;2.22;;;;;14.30;98273.00;;;;4840733;29;20110;-70
2024/02/16 02:15:48;;;;;;;4.72;2.75;;;;;14.30;98269.00;;;;4840312;29;20092;-70
2024/02/16 02:18:15;;;;;;;3.33;2.60;;;;;14.30;98270.00;;;;4840025;29;20081;-70
2024/02/16 02:20:42;;;;;;;5.07;2.20;;;;;14.20;98269.00;;;;4841509;29;20110;-70
2024/02/16 02:23:09;;;;;;;3.55;2.45;;;;;14.20;98266.00;;;;4841182;29;20046;-70
2024/02/16 02:25:36;;;;;;;4.35;2.13;;;;;14.30;98260.00;;;;4840154;29;20052;-70
2024/02/16 02:28:03;;;;;;;4.65;2.13;;;;;14.30;98260.00;;;;4841398;29;20069;-70
2024/02/16 02:30:29;;;;;;;5.40;2.55;;;;;14.30;98253.00;;;;4839941;29;20096;-70
2024/02/16 02:32:56;;;;;;;5.07;2.58;;;;;14.40;98255.00;;;;4841271;29;20098;-70
2024/02/16 02:35:23;;;;;;;3.22;2.13;;;;;14.30;98259.00;;;;4841264;29;20141;-70
2024/02/16 02:37:49;;;;;;;6.55;2.17;;;;;14.30;98255.00;;;;4845331;29;20471;-69
2024/02/16 02:40:16;;;;;;;5.63;2.25;;;;;14.30;98246.00;;;;4839487;29;20050;-70
2024/02/16 02:42:43;;;;;;;6.00;2.10;;;;;14.30;98254.00;;;;4841222;29;20046;-69
2024/02/16 02:45:11;;;;;;;4.20;2.35;;;;;14.30;98254.00;;;;4839971;29;20050;-70
2024/02/16 02:47:37;;;;;;;3.58;1.60;;;;;14.40;98254.00;;;;4840057;29;20050;-70
2024/02/16 02:50:05;;;;;;;4.18;2.17;;;;;14.40;98255.00;;;;4839718;29;20054;-70
2024/02/16 02:52:32;;;;;;;5.63;2.15;;;;;14.40;98254.00;;;;4841036;29;20069;-70
2024/02/16 02:54:58;;;;;;;3.75;1.98;;;;;14.40;98249.00;;;;4841026;29;20136;-70
2024/02/16 02:57:25;;;;;;;3.58;1.95;;;;;14.40;98260.00;;;;4841040;29;20046;-70
2024/02/16 02:59:51;;;;;;;6.05;2.13;;;;;14.40;98262.00;;;;4840955;29;20065;-69
2024/02/16 03:02:18;;;;;;;3.35;2.15;;;;;14.40;98264.00;;;;4841038;29;20049;-70
2024/02/16 03:04:44;;;;;;;3.15;2.15;;;;;14.40;98259.00;;;;4841505;29;20483;-70
2024/02/16 03:07:11;;;;;;;2.72;1.58;;;;;14.40;98252.00;;;;4840965;29;20050;-70
2024/02/16 03:09:38;;;;;;;2.95;1.77;;;;;14.40;98260.00;;;;4843528;29;20053;-69
2024/02/16 03:12:04;;;;;;;3.08;2.00;;;;;14.50;98261.00;;;;4840844;29;20089;-69
2024/02/16 03:14:31;;;;;;;2.83;1.77;;;;;14.50;98260.00;;;;4841157;29;20108;-69
2024/02/16 03:16:57;;;;;;;3.65;2.38;;;;;14.50;98262.00;;;;4840095;29;20411;-70
2024/02/16 03:19:24;;;;;;;4.70;1.95;;;;;14.50;98260.00;;;;4839670;29;20120;-69
2024/02/16 03:21:51;;;;;;;2.42;2.03;;;;;14.50;98263.00;;;;4840622;29;20398;-70
2024/02/16 03:24:17;;;;;;;3.50;1.98;;;;;14.50;98257.00;;;;4840348;29;20057;-70
2024/02/16 03:26:44;;;;;;;4.13;1.73;;;;;14.50;98263.00;;;;4844434;29;20634;-70
2024/02/16 03:29:10;;;;;;;1.98;1.80;;;;;14.50;98254.00;;;;4843025;29;20045;-69
2024/02/16 03:31:37;;;;;;;5.65;2.47;;;;;14.50;98261.00;;;;4844414;29;20419;-69
2024/02/16 03:34:03;;;;;;;3.45;1.90;;;;;14.60;98262.00;;;;4842994;29;20046;-70
2024/02/16 03:36:30;;;;;;;5.53;1.90;;;;;14.60;98263.00;;;;4858298;29;20050;-70
2024/02/16 03:38:57;;;;;;;2.97;1.90;;;;;14.60;98260.00;;;;4846755;29;20046;-70
2024/02/16 03:41:24;;;;;;;3.58;1.95;;;;;14.60;98267.00;;;;4851715;29;20049;-70
2024/02/16 03:43:51;;;;;;;4.43;2.15;;;;;14.60;98253.00;;;;4844173;29;20052;-70
2024/02/16 03:46:18;;;;;;;5.35;2.47;;;;;14.60;98260.00;;;;4858365;29;20050;-70
2024/02/16 03:48:44;;;;;;;4.70;2.03;;;;;14.60;98264.00;;;;4842493;29;20491;-70
2024/02/16 03:51:12;;;;;;;2.88;2.00;;;;;14.70;98261.00;;;;4857967;29;20579;-70
2024/02/16 03:53:38;;;;;;;4.15;2.15;;;;;14.60;98264.00;;;;4842724;29;20054;-70
2024/02/16 03:56:05;;;;;;;3.90;2.35;;;;;14.60;98268.00;;;;4842580;29;20098;-70
2024/02/16 03:58:32;;;;;;;3.03;2.00;;;;;14.60;98272.00;;;;4843624;29;20571;-69
2024/02/16 04:00:59;;;;;;;2.25;1.90;;;;;14.60;98271.00;;;;4842658;29;20052;-69
2024/02/16 04:03:26;;;;;;;2.00;1.70;;;;;14.60;98271.00;;;;4843620;29;20050;-69
2024/02/16 04:05:53;;;;;;;2.80;1.92;;;;;14.60;98271.00;;;;4842371;29;20128;-69
2024/02/16 04:08:19;;;;;;;3.33;2.20;;;;;14.70;98260.00;;;;4851391;29;20057;-69
2024/02/16 04:10:46;;;;;;;3.08;2.30;;;;;14.70;98269.00;;;;4845778;29;20046;-69
2024/02/16 04:13:13;;;;;;;4.47;2.28;;;;;14.70;98265.00;;;;4857573;29;20568;-69
2024/02/16 04:15:39;;;;;;;3.45;1.70;;;;;14.70;98270.00;;;;4857587;29;20065;-69
2024/02/16 04:18:06;;;;;;;6.55;2.53;;;;;14.80;98270.00;;;;4843326;29;20102;-69
2024/02/16 04:20:33;;;;;;;3.05;2.15;;;;;14.70;98265.00;;;;4842070;29;20522;-69
2024/02/16 04:23:00;;;;;;;3.15;2.10;;;;;14.80;98279.00;;;;4843278;29;20141;-68
2024/02/16 04:25:27;;;;;;;2.72;1.90;;;;;14.80;98273.00;;;;4841993;29;20499;-69
2024/02/16 04:27:53;;;;;;;3.95;2.15;;;;;14.80;98272.00;;;;4857374;29;20077;-69
2024/02/16 04:30:20;;;;;;;3.80;1.80;;;;;14.80;98279.00;;;;4857129;29;20148;-69
2024/02/16 04:32:48;;;;;;;6.38;2.05;;;;;14.70;98279.00;;;;4843399;29;20415;-69
2024/02/16 04:35:15;;;;;;;4.20;2.33;;;;;14.70;98278.00;;;;4857019;29;20046;-69
2024/02/16 04:37:42;;;;;;;2.63;1.65;;;;;14.70;98288.00;;;;4859952;29;20049;-69
2024/02/16 04:40:11;;;;;;;5.65;1.90;;;;;14.70;98283.00;;;;4842018;29;20062;-68
2024/02/16 04:42:40;;;;;;;5.93;2.38;;;;;14.70;98283.00;;;;4842998;29;20046;-68
2024/02/16 04:45:07;;;;;;;5.68;2.05;;;;;14.70;98274.00;;;;4842906;29;20050;-68
2024/02/16 04:47:34;;;;;;;2.67;1.95;;;;;14.70;98270.00;;;;4842987;29;20050;-69
2024/02/16 04:50:01;;;;;;;2.17;1.60;;;;;14.70;98272.00;;;;4841461;29;20050;-68
2024/02/16 04:52:27;;;;;;;2.60;1.85;;;;;14.70;98274.00;;;;4842801;29;20555;-69
2024/02/16 04:54:56;;;;;;;4.75;2.05;;;;;14.70;98271.00;;;;4841520;29;20525;-69
2024/02/16 04:57:23;;;;;;;4.18;1.98;;;;;14.70;98282.00;;;;4856886;29;20046;-68
2024/02/16 04:59:49;;;;;;;4.65;2.25;;;;;14.70;98281.00;;;;4841356;29;20415;-69
2024/02/16 05:02:16;;;;;;;4.15;2.00;;;;;14.70;98280.00;;;;4841341;29;20086;-69
2024/02/16 05:04:42;;;;;;;2.05;1.80;;;;;14.70;98284.00;;;;4842613;29;20050;-69
2024/02/16 05:07:09;;;;;;;4.65;1.92;;;;;14.70;98289.00;;;;4842545;29;20050;-69
2024/02/16 05:09:36;;;;;;;3.47;2.10;;;;;14.70;98288.00;;;;4846461;29;20041;-69
2024/02/16 05:12:03;;;;;;;2.28;1.63;;;;;14.70;98287.00;;;;4842265;29;20054;-69
2024/02/16 05:14:30;;;;;;;2.08;1.70;;;;;14.70;98297.00;;;;4842504;29;20054;-70
2024/02/16 05:16:56;;;;;;;3.13;1.90;;;;;14.70;98296.00;;;;4841236;29;20050;-70
2024/02/16 05:19:25;;;;;;;2.67;1.73;;;;;14.70;98292.00;;;;4841982;29;20049;-69
2024/02/16 05:21:52;;;;;;;3.08;1.73;;;;;14.60;98299.00;;;;4840957;29;20498;-70
2024/02/16 05:24:18;;;;;;;4.20;2.38;;;;;14.60;98295.00;;;;4842208;29;20411;-70
2024/02/16 05:26:45;;;;;;;4.15;1.95;;;;;14.60;98289.00;;;;4842097;29;20056;-70
2024/02/16 05:29:12;;;;;;;4.03;2.05;;;;;14.60;98297.00;;;;4840641;29;20283;-70
2024/02/16 05:31:38;;;;;;;2.78;1.70;;;;;14.60;98300.00;;;;4840985;29;20069;-70
2024/02/16 05:34:05;;;;;;;3.47;1.52;;;;;14.60;98302.00;;;;4840836;29;20086;-70
2024/02/16 05:36:35;;;;;;;3.97;1.85;;;;;14.60;98300.00;;;;4825933;29;20757;-69
2024/02/16 05:39:19;;;;;;;2.50;1.80;;;;;14.70;98299.00;;;;4850738;29;20085;-69
2024/02/16 05:41:46;;;;;;;;;;;;;14.60;98305.00;;;;4842295;29;20042;-69
2024/02/16 05:44:13;;;;;;;5.03;1.92;;;;;14.60;98305.00;;;;4840958;29;19924;-70
2024/02/16 05:46:40;;;;;;;2.75;1.70;;;;;14.60;98300.00;;;;4841981;29;20056;-70
2024/02/16 05:49:06;;;;;;;2.58;1.70;;;;;14.60;98303.00;;;;4840254;29;20049;-70
2024/02/16 05:51:37;;;;;;;3.15;1.98;;;;;14.60;98293.00;;;;4842587;29;20050;-70
2024/02/16 05:54:04;;;;;;;3.42;1.90;;;;;14.50;98298.00;;;;4840739;29;20054;-70
2024/02/16 05:56:33;;;;;;;4.05;1.83;;;;;14.50;98293.00;;;;4840677;29;20053;-69
2024/02/16 05:59:00;;;;;;;2.58;1.70;;;;;14.60;98298.00;;;;4840329;29;20106;-70
2024/02/16 06:01:27;;;;;;;2.05;1.48;;;;;14.50;98300.00;;;;4841659;29;20070;-69
2024/02/16 06:03:54;;;;;;;4.05;1.80;;;;;14.50;98295.00;;;;4841551;29;20045;-69
2024/02/16 06:06:20;;;;;;;2.85;1.70;;;;;14.60;98307.00;;;;4840381;29;20054;-70
2024/02/16 06:08:47;;;;;;;3.63;1.95;;;;;14.50;98299.00;;;;4844204;29;20042;-69
2024/02/16 06:11:15;;;;;;;3.38;1.60;;;;;14.50;98304.00;;;;4840102;29;20137;-70
2024/02/16 06:13:42;;;;;;;4.22;1.83;;;;;14.50;98305.00;;;;4840409;29;20049;-70
2024/02/16 06:16:09;;;;;;;4.68;2.33;;;;;14.60;98306.00;;;;4841380;29;20062;-70
2024/02/16 06:18:36;;;;;;;5.03;1.70;;;;;14.50;98310.00;;;;4840001;29;20069;-69
2024/02/16 06:21:03;;;;;;;3.03;1.63;;;;;14.50;98312.00;;;;4840185;29;20069;-70
2024/02/16 06:23:30;;;;;;;3.35;1.70;;;;;14.50;98309.00;;;;4855254;29;20057;-70
2024/02/16 06:25:57;;;;;;;2.10;1.70;;;;;14.50;98313.00;;;;4840333;29;20050;-70
2024/02/16 06:28:23;;;;;;;3.45;1.60;;;;;14.50;98317.00;;;;4840042;29;20046;-70
2024/02/16 06:30:50;;;;;;;4.03;2.20;;;;;14.50;98318.00;;;;4841463;29;20491;-70
2024/02/16 06:33:16;;;;;;;3.33;1.80;;;;;14.50;98319.00;;;;4841369;29;20049;-70
2024/02/16 06:35:43;;;;;;;3.20;2.25;;;;;14.50;98315.00;;;;4841848;29;20061;-70
2024/02/16 06:38:10;;;;;;;5.18;2.03;;;;;14.50;98327.00;;;;4844336;29;20050;-70
2024/02/16 06:40:36;;;;;;;5.05;1.80;;;;;14.60;98330.00;;;;4852093;29;20046;-70
2024/02/16 06:43:05;;;;;;;3.92;1.88;;;;;14.60;98339.00;;;;4822179;29;20050;-70
2024/02/16 06:45:31;;;;;;;4.03;1.92;;;;;14.50;98336.00;;;;4823237;29;20050;-70
2024/02/16 06:47:58;;;;;;;3.53;1.70;;;;;14.50;98345.00;;;;4823010;29;20459;-68
2024/02/16 06:50:25;;;;;;;3.15;1.50;;;;;14.50;98339.00;;;;4823168;29;20107;-70
2024/02/16 06:52:51;;;;;;;8.05;2.10;;;;;14.50;98345.00;;;;4822175;29;20050;-70
2024/02/16 06:55:19;;;;;;;2.78;1.80;;;;;14.50;98346.00;;;;4836891;29;20046;-70
2024/02/16 06:57:45;;;;;;;1.85;1.45;;;;;14.50;98359.00;;;;4821656;29;20518;-68
2024/02/16 07:00:13;;;;;;;5.40;2.33;;;;;14.60;98347.00;;;;4824798;29;20050;-67
2024/02/16 07:02:41;;;;;;;2.83;1.83;;;;;14.60;98365.00;;;;4826149;29;20054;-66
2024/02/16 07:05:08;;;;;;;4.53;1.50;;;;;14.70;98365.00;;;;4840701;29;20138;-66
2024/02/16 07:07:35;;;;;;;2.28;1.60;;;;;14.80;98368.00;;;;4831210;29;20054;-68
2024/02/16 07:10:02;;;;;;;3.17;1.65;;;;;14.80;98369.00;;;;4845688;29;20065;-68
2024/02/16 07:12:29;;;;;;;3.08;1.50;;;;;14.90;98373.00;;;;4843391;29;20049;-70
2024/02/16 07:14:56;;;;;;;5.43;1.85;;;;;14.80;98373.00;;;;4844685;29;20054;-68
2024/02/16 07:17:22;;;;;;;3.50;1.60;;;;;14.80;98376.00;;;;4844510;29;20053;-68
2024/02/16 07:19:49;;;;;;;2.95;1.80;;;;;14.90;98381.00;;;;4844172;29;20129;-68
2024/02/16 07:22:15;;;;;;;2.65;1.98;;;;;14.90;98383.00;;;;4844223;29;20053;-68
2024/02/16 07:24:42;;;;;;;3.22;1.73;;;;;14.90;98394.00;;;;4844500;29;20046;-68
2024/02/16 07:27:09;;;;;;;4.35;1.67;;;;;14.80;98388.00;;;;4844451;29;20064;-68
2024/02/16 07:29:38;;;;;;;2.08;1.65;;;;;14.90;98399.00;;;;4842934;29;20056;-68
2024/02/16 07:32:05;;;;;;;4.50;2.20;;;;;14.90;98394.00;;;;4844421;29;20054;-68
2024/02/16 07:34:32;;;;;;;5.30;2.20;;;;;14.90;98394.00;;;;4843064;29;20054;-68
2024/02/16 07:36:58;;;;;;;2.58;1.65;;;;;14.90;98390.00;;;;4842909;29;20057;-68
2024/02/16 07:39:25;;;;;;;3.70;1.50;;;;;14.80;98400.00;;;;4847871;29;20048;-68
2024/02/16 07:41:52;;;;;;;4.03;1.98;;;;;14.80;98392.00;;;;4855292;29;20046;-67
2024/02/16 07:44:18;;;;;;;3.10;1.67;;;;;14.80;98395.00;;;;4844161;29;20058;-67
2024/02/16 07:46:45;;;;;;;2.63;2.03;;;;;14.80;98392.00;;;;4844390;29;20054;-67
2024/02/16 07:49:12;;;;;;;2.78;1.50;;;;;14.80;98399.00;;;;4844066;29;20049;-67
2024/02/16 07:51:40;;;;;;;5.80;2.10;;;;;14.80;98403.00;;;;4843421;29;20066;-67
2024/02/16 07:54:08;;;;;;;2.95;1.75;;;;;14.80;98402.00;;;;4844532;29;20042;-68
2024/02/16 07:56:34;;;;;;;3.35;1.95;;;;;14.80;98399.00;;;;4844355;29;20503;-67
2024/02/16 07:59:01;;;;;;;5.30;2.65;;;;;14.90;98409.00;;;;4844337;29;20053;-67
2024/02/16 08:01:27;;;;;;;6.13;2.10;;;;;14.90;98422.00;;;;4844314;29;20061;-67
2024/02/16 08:03:54;;;;;;;3.53;2.00;;;;;15.00;98418.00;;;;4844221;29;20054;-67
2024/02/16 08:06:25;;;;;;;2.78;1.70;;;;;15.00;98418.00;;;;4844122;29;20079;-67
2024/02/16 08:08:53;;;;;;;2.25;1.90;;;;;15.10;98422.00;;;;4847748;29;20049;-67
2024/02/16 08:11:20;;;;;;;3.22;1.65;;;;;15.10;98423.00;;;;4842432;29;20118;-67
2024/02/16 08:13:46;;;;;;;6.47;1.95;;;;;15.10;98422.00;;;;4843931;29;20053;-67
2024/02/16 08:16:13;;;;;;;2.60;1.63;;;;;15.00;98428.00;;;;4843797;29;20133;-67
2024/02/16 08:18:40;;;;;;;4.53;2.03;;;;;15.00;98422.00;;;;4843662;29;20080;-66
2024/02/16 08:21:07;;;;;;;4.95;2.30;;;;;15.00;98431.00;;;;4843892;29;20077;-65
2024/02/16 08:23:34;;;;;;;3.05;1.88;;;;;15.00;98429.00;;;;4843984;29;20068;-66
2024/02/16 08:26:00;;;;;;;5.32;1.83;;;;;15.00;98427.00;;;;4843733;29;20419;-66
2024/02/16 08:28:27;;;;;;;3.63;1.85;;;;;15.00;98433.00;;;;4843920;29;20129;-66
2024/02/16 08:30:54;;;;;;;4.72;1.95;;;;;15.00;98422.00;;;;4844492;29;20053;-66
2024/02/16 08:33:20;;;;;;;2.75;1.60;;;;;15.10;98430.00;;;;4843499;29;20130;-66
2024/02/16 08:35:47;;;;;;;2.50;1.95;;;;;15.10;98436.00;;;;4842169;29;20098;-66
2024/02/16 08:38:14;;;;;;;4.07;1.95;;;;;15.10;98434.00;;;;4861759;29;20104;-66
2024/02/16 08:40:40;;;;;;;3.78;2.00;;;;;15.10;98432.00;;;;4849441;29;20107;-69
2024/02/16 08:43:07;;;;;;;3.72;1.50;;;;;15.20;98443.00;;;;4843235;29;20045;-69
2024/02/16 08:45:34;;;;;;;4.20;1.85;;;;;15.30;98440.00;;;;4844081;29;20073;-70
2024/02/16 08:48:03;;;;;;;5.43;1.83;;;;;15.40;98451.00;;;;4843044;29;20042;-69
2024/02/16 08:50:30;;;;;;;5.70;1.92;;;;;15.40;98449.00;;;;4842838;29;20077;-70
2024/02/16 08:52:57;;;;;;;3.80;1.77;;;;;15.40;98451.00;;;;4844294;29;20078;-70
2024/02/16 08:55:24;;;;;;;6.68;2.00;;;;;15.50;98452.00;;;;4843674;29;20049;-70
2024/02/16 08:57:50;;;;;;;3.60;2.13;;;;;15.50;98456.00;;;;4842815;29;20459;-70
2024/02/16 09:00:17;;;;;;;3.03;2.00;;;;;15.60;98458.00;;;;4843389;29;20140;-70
2024/02/16 09:02:45;;;;;;;3.50;2.13;;;;;15.60;98455.00;;;;4843565;29;20513;-70
2024/02/16 09:05:11;;;;;;;4.13;2.13;;;;;15.60;98464.00;;;;4859500;29;20069;-69
2024/02/16 09:07:38;;;;;;;3.17;1.63;;;;;15.60;98470.00;;;;4848705;29;20499;-70
2024/02/16 09:10:05;;;;;;;5.18;1.77;;;;;15.60;98468.00;;;;4861409;29;20050;-70
2024/02/16 09:12:32;;;;;;;5.20;2.25;;;;;15.60;98469.00;;;;4846232;29;20101;-70
2024/02/16 09:14:58;;;;;;;3.28;1.92;;;;;15.70;98469.00;;;;4860650;29;20054;-70
2024/02/16 09:17:26;;;;;;;3.08;1.85;;;;;15.60;98476.00;;;;4844962;29;20042;-70
2024/02/16 09:19:53;;;;;;;3.17;1.50;;;;;15.60;98470.00;;;;4845176;29;20046;-70
2024/02/16 09:22:19;;;;;;;6.07;2.08;;;;;15.60;98472.00;;;;4846423;29;20110;-70
2024/02/16 09:24:46;;;;;;;3.45;2.30;;;;;15.60;98479.00;;;;4848174;29;20053;-70
2024/02/16 09:27:13;;;;;;;2.38;1.90;;;;;15.50;98481.00;;;;4847293;29;20058;-70
2024/02/16 09:29:40;;;;;;;3.38;2.33;;;;;15.60;98472.00;;;;4852408;29;20449;-70
2024/02/16 09:32:06;;;;;;;5.80;1.90;;;;;15.60;98478.00;;;;4857120;29;20137;-70
2024/02/16 09:34:34;;;;;;;6.68;2.47;;;;;15.70;98476.00;;;;4855233;29;20500;-70
2024/02/16 09:37:01;;;;;;;6.70;3.08;;;;;15.70;98489.00;;;;4872364;29;20185;-70
2024/02/16 09:39:28;;;;;;;3.83;2.20;;;;;15.80;98488.00;;;;4854131;29;20125;-70
2024/02/16 09:41:55;;;;;;;4.18;2.10;;;;;15.90;98485.00;;;;4854091;29;20411;-69
2024/02/16 09:44:22;;;;;;;2.97;2.00;;;;;15.90;98490.00;;;;4851977;29;20053;-69
2024/02/16 09:46:48;;;;;;;3.53;1.95;;;;;15.90;98489.00;;;;4852209;29;20057;-69
2024/02/16 09:49:18;;;;;;;4.40;2.30;;;;;15.90;98488.00;;;;4850830;29;20054;-70
2024/02/16 09:51:59;;;;;;;2.50;1.70;;;;;15.90;98487.00;;;;4855525;29;20416;-69
2024/02/16 09:54:26;;;;;;;6.00;2.92;;;;;15.90;98480.00;;;;4865661;29;20065;-69
2024/02/16 09:56:52;;;;;;;4.32;1.95;;;;;15.90;98494.00;;;;4850129;29;20492;-70
2024/02/16 09:59:19;;;;;;;4.70;2.00;;;;;16.00;98498.00;;;;4848816;29;20476;-69
2024/02/16 10:01:47;;;;;;;5.93;2.20;;;;;16.20;98498.00;;;;4848852;29;20082;-69
2024/02/16 10:04:14;;;;;;;2.55;1.90;;;;;16.30;98500.00;;;;4849706;29;20060;-69
2024/02/16 10:06:48;;;;;;;4.07;1.95;;;;;16.40;98499.00;;;;4849296;29;20046;-69
2024/02/16 10:09:29;;;;;;;4.45;2.00;;;;;16.50;98507.00;;;;4867238;29;20048;-70
2024/02/16 10:11:57;;;;;;;4.18;1.85;;;;;16.50;98504.00;;;;4845899;29;20061;-69
2024/02/16 10:14:25;;;;;;;3.58;2.10;;;;;16.50;98509.00;;;;4846362;29;20106;-69
2024/02/16 10:17:06;;;;;;;3.55;2.20;;;;;16.60;98505.00;;;;4847076;29;20050;-69
2024/02/16 10:19:39;;;;;;;5.68;1.90;;;;;16.60;98508.00;;;;4849553;29;20053;-70
2024/02/16 10:22:09;;;;;;;4.00;2.03;;;;;16.60;98524.00;;;;4848994;29;20049;-69
2024/02/16 10:24:38;;;;;;;5.22;2.20;;;;;16.70;98523.00;;;;4849969;29;20081;-69
2024/02/16 10:27:06;;;;;;;5.13;1.98;;;;;16.80;98523.00;;;;4849865;29;20058;-69
2024/02/16 10:29:34;;;;;;;5.72;2.15;;;;;16.80;98526.00;;;;4852275;29;20052;-70
2024/02/16 10:32:01;;;;;;;3.92;2.10;;;;;16.90;98522.00;;;;4851935;29;20074;-69
2024/02/16 10:34:28;;;;;;;7.63;2.00;;;;;16.90;98528.00;;;;4866102;29;20060;-70
2024/02/16 10:36:57;;;;;;;3.42;2.05;;;;;17.00;98522.00;;;;4847569;29;20487;-70
2024/02/16 10:39:24;;;;;;;4.55;2.30;;;;;17.10;98529.00;;;;4856356;29;20081;-69
2024/02/16 10:41:51;;;;;;;3.70;2.15;;;;;17.20;98535.00;;;;4851477;29;20089;-69
2024/02/16 10:44:18;;;;;;;4.75;2.42;;;;;17.40;98534.00;;;;4850509;29;20058;-69
2024/02/16 10:46:45;;;;;;;6.15;2.67;;;;;17.50;98534.00;;;;4853034;29;20137;-70
2024/02/16 10:49:11;;;;;;;4.80;1.88;;;;;17.50;98534.00;;;;4857063;29;20062;-70
2024/02/16 10:51:48;;;;;;;5.75;2.22;;;;;17.60;98554.00;;;;4856731;29;20050;-69
2024/02/16 10:54:18;;;;;;;2.72;2.20;;;;;17.70;98535.00;;;;4857099;29;20492;-69
2024/02/16 10:56:45;;;;;;;4.30;2.58;;;;;17.70;98557.00;;;;4858685;29;20045;-69
2024/02/16 10:59:12;;;;;;;3.65;2.60;;;;;17.80;98544.00;;;;4857951;29;20090;-69
2024/02/16 11:01:39;;;;;;;7.95;4.38;;;;;17.90;98559.00;;;;4859101;29;20448;-69
2024/02/16 11:04:09;;;;;;;14.02;8.43;;;;;17.90;98567.00;;;;4858113;29;20118;-69
2024/02/16 11:06:48;;;;;;;4.40;2.42;;;;;18.00;98565.00;;;;4861290;29;20050;-70
2024/02/16 11:09:29;;;;;;;4.90;2.70;;;;;17.90;98562.00;;;;4872202;29;20054;-68
2024/02/16 11:12:00;;;;;;;4.32;2.13;;;;;17.80;98557.00;;;;4852784;29;20058;-68
2024/02/16 11:14:36;;;;;;;3.55;2.15;;;;;17.90;98573.00;;;;4853891;29;20064;-71
2024/02/16 11:17:11;;;;;;;6.13;2.45;;;;;17.80;98552.00;;;;4854535;29;20412;-68
2024/02/16 11:19:45;;;;;;;6.10;2.58;;;;;17.80;98574.00;;;;4854724;29;20062;-68
2024/02/16 11:22:19;;;;;;;3.03;2.53;;;;;17.80;98557.00;;;;4852961;29;20054;-68
2024/02/16 11:24:49;;;;;;;4.28;2.78;;;;;17.80;98565.00;;;;4857970;29;20054;-69
2024/02/16 11:27:19;;;;;;;5.03;2.20;;;;;17.90;98563.00;;;;4856497;29;20054;-69
2024/02/16 11:29:47;;;;;;;5.75;2.42;;;;;18.00;98568.00;;;;4854411;29;20078;-69
2024/02/16 11:32:14;;;;;;;4.90;2.33;;;;;18.10;98564.00;;;;4854318;29;20060;-70
2024/02/16 11:34:41;;;;;;;5.38;3.47;;;;;18.20;98568.00;;;;4856365;29;20065;-69
2024/02/16 11:37:07;;;;;;;4.07;2.50;;;;;18.20;98564.00;;;;4854262;29;20054;-69
2024/02/16 11:39:37;;;;;;;3.33;2.22;;;;;18.30;98580.00;;;;4867948;29;20049;-69
2024/02/16 11:42:04;;;;;;;5.35;2.33;;;;;18.50;98577.00;;;;4858619;29;20057;-70
2024/02/16 11:44:32;;;;;;;5.55;2.58;;;;;18.50;98576.00;;;;4856976;29;20073;-69
2024/02/16 11:47:00;;;;;;;6.97;2.08;;;;;18.60;98570.00;;;;4855601;29;20050;-68
2024/02/16 11:49:28;;;;;;;5.32;3.03;;;;;18.70;98574.00;;;;4869936;29;20078;-70
2024/02/16 11:51:56;;;;;;;7.72;4.05;;;;;18.70;98574.00;;;;4857939;29;20058;-69
2024/02/16 11:54:23;;;;;;;6.53;2.22;;;;;18.70;98573.00;;;;4855757;29;20074;-70
2024/02/16 11:56:52;;;;;;;8.90;2.38;;;;;18.60;98588.00;;;;4851122;29;20057;-68
2024/02/16 11:59:19;;;;;;;4.03;2.22;;;;;18.60;98578.00;;;;4844555;29;20042;-68
2024/02/16 12:01:56;;;;;;;7.70;2.22;;;;;18.60;98590.00;;;;4844477;29;20045;-68
2024/02/16 12:04:28;;;;;;;4.20;2.20;;;;;18.50;98588.00;;;;4843768;29;20077;-69
2024/02/16 12:06:59;;;;;;;5.10;2.40;;;;;18.50;98595.00;;;;4858499;29;20575;-70
2024/02/16 12:09:34;;;;;;;6.18;2.60;;;;;18.50;98580.00;;;;4847671;29;20102;-70
2024/02/16 12:12:02;;;;;;;7.07;2.80;;;;;18.50;98594.00;;;;4843999;29;20054;-70
2024/02/16 12:14:29;;;;;;;2.65;1.83;;;;;18.50;98583.00;;;;4858397;29;20091;-69
2024/02/16 12:16:57;;;;;;;3.88;1.75;;;;;18.40;98593.00;;;;4844036;29;20049;-65
2024/02/16 12:19:24;;;;;;;4.57;2.10;;;;;18.50;98590.00;;;;4842080;29;20142;-70